Flight Track Log - Related Links

Times and Time Zones

All times are in EDT time to prevent confusion due to time zone crossing. See the SWA471 flight status page for this flight to view local times or setup timezone preferences in your user account.

Time Position Orientation Groundspeed Altitude Reporting Facility
EDT Latitude Longitude Course Direction KTS MPH feet Rate Location/Type
Wed 06:26:56 PM 39.1333 -76.6833 211° Southwest 203 234 2,400  Level Potomac TRACON
Wed 06:27:56 PM 39.1833 -76.7333 322° Northwest 299 344 5,000 3,250 Climbing Potomac TRACON
Wed 06:28:56 PM 39.2000 -76.8167 284° West 225 259 8,900 3,000 Climbing Potomac TRACON
Wed 06:29:56 PM 39.2000 -76.9167 270° West 255 293 11,000 1,650 Climbing Potomac TRACON
Wed 06:30:56 PM 39.2000 -77.0167 270° West 321 369 12,200 1,835 Climbing Potomac TRACON
Wed 06:31:57 PM 39.2000 -77.1500 270° West 346 398 14,700 2,212 Climbing Potomac TRACON
Wed 06:32:00 PM 39.1081 -77.2253 211° Southwest  Level FlightAware Approximate
Wed 06:33:55 PM 39.0558 -77.2864 216° Southwest 370 426 18,800  Level Washington Center
Wed 06:34:55 PM 38.9939 -77.3783 229° Southwest 342 394 20,800 1,750 Climbing Washington Center
Wed 06:35:55 PM 38.9733 -77.5033 258° West 336 387 22,300 1,300 Climbing Washington Center
Wed 06:36:55 PM 38.9525 -77.6308 258° West 361 415 23,400 1,250 Climbing Washington Center
Wed 06:37:55 PM 38.9294 -77.7558 257° West 390 449 24,800 1,550 Climbing Washington Center
Wed 06:38:55 PM 38.9081 -77.8939 259° West 395 455 26,500 1,750 Climbing Washington Center
Wed 06:39:55 PM 38.8847 -78.0264 257° West 395 455 28,300 1,400 Climbing Washington Center
Wed 06:40:55 PM 38.8631 -78.1589 258° West 390 449 29,300 1,050 Climbing Washington Center
Wed 06:41:55 PM 38.8539 -78.3000 265° West 396 456 30,400 1,250 Climbing Washington Center
Wed 06:42:55 PM 38.8525 -78.4386 269° West 396 456 31,800 1,800 Climbing Washington Center
Wed 06:43:55 PM 38.8517 -78.5692 270° West 384 442 34,000 1,600 Climbing Washington Center
Wed 06:44:55 PM 38.8400 -78.6914 263° West 367 422 35,000 1,000 Climbing Washington Center
Wed 06:45:55 PM 38.8183 -78.8103 257° West 353 406 36,000 550 Climbing Washington Center
Wed 06:46:55 PM 38.8150 -78.9328 268° West 353 406 36,100 50 Climbing Washington Center
Wed 06:47:55 PM 38.8156 -79.0553 270° West 348 400 36,100  Level Washington Center
Wed 06:48:55 PM 38.8142 -79.1750 269° West 343 395 36,100  Level Washington Center
Wed 06:49:55 PM 38.8125 -79.2975 269° West 343 395 36,100  Level Washington Center
Wed 06:50:55 PM 38.8131 -79.4150 270° West 343 395 36,100  Level Washington Center
Wed 06:51:55 PM 38.8111 -79.5347 269° West 343 395 36,100  Level Washington Center
Wed 06:52:55 PM 38.8092 -79.6597 269° West 349 402 36,100  Level Washington Center
Wed 06:53:55 PM 38.8069 -79.7822 269° West 349 402 36,100  Level Washington Center
Wed 06:55:40 PM 38.8028 -79.9767 268° West 333 383 36,100  Level Indianapolis Center
Wed 06:56:42 PM 38.8008 -80.0947 269° West 332 382 36,100 -49 Level Indianapolis Center
Wed 06:57:43 PM 38.7981 -80.2364 269° West 332 382 36,000  Descending Indianapolis Center
Wed 06:58:45 PM 38.7953 -80.3544 268° West 330 380 36,100 48 Climbing Indianapolis Center
Wed 06:59:47 PM 38.7919 -80.4714 268° West 329 379 36,100 -48 Level Indianapolis Center
Wed 07:00:49 PM 38.7900 -80.5894 269° West 328 377 36,000  Descending Indianapolis Center
Wed 07:01:51 PM 38.7881 -80.7039 269° West 328 377 36,100 48 Climbing Indianapolis Center
Wed 07:02:53 PM 38.7850 -80.8214 268° West 331 381 36,100  Level Indianapolis Center
Wed 07:03:55 PM 38.7822 -80.9383 268° West 330 380 36,100  Level Indianapolis Center
Wed 07:04:56 PM 38.7786 -81.0789 268° West 330 380 36,100  Level Indianapolis Center
Wed 07:05:58 PM 38.7753 -81.2003 268° West 338 389 36,100  Level Indianapolis Center
Wed 07:07:00 PM 38.7722 -81.3203 268° West 340 391 36,100  Level Indianapolis Center
Wed 07:08:02 PM 38.7686 -81.4372 268° West 332 382 36,100  Level Indianapolis Center
Wed 07:09:04 PM 38.7656 -81.5753 268° West 331 381 36,100  Level Indianapolis Center
Wed 07:10:06 PM 38.7619 -81.6883 268° West 329 379 36,100  Level Indianapolis Center
Wed 07:11:07 PM 38.7581 -81.8017 268° West 324 373 36,100  Level Indianapolis Center
Wed 07:12:09 PM 38.7539 -81.9153 267° West 320 368 36,100  Level Indianapolis Center
Wed 07:13:11 PM 38.7503 -82.0281 268° West 319 367 36,100  Level Indianapolis Center
Wed 07:14:13 PM 38.7461 -82.1414 267° West 320 368 36,100  Level Indianapolis Center
Wed 07:15:15 PM 38.7419 -82.2753 268° West 315 362 36,100  Level Indianapolis Center
Wed 07:16:16 PM 38.7375 -82.3853 267° West 310 357 36,100  Level Indianapolis Center
Wed 07:17:18 PM 38.7328 -82.4964 267° West 312 359 36,100  Level Indianapolis Center
Wed 07:18:20 PM 38.7289 -82.6033 267° West 305 351 36,100  Level Indianapolis Center
Wed 07:19:21 PM 38.7239 -82.7136 267° West 309 356 36,100  Level Indianapolis Center
Wed 07:20:23 PM 38.7203 -82.8200 268° West 302 348 36,100  Level Indianapolis Center
Wed 07:21:25 PM 38.7156 -82.9269 267° West 301 346 36,100  Level Indianapolis Center
Wed 07:22:27 PM 38.7106 -83.0339 267° West 301 346 36,100  Level Indianapolis Center
Wed 07:23:28 PM 38.7056 -83.1617 267° West 300 345 36,100 -49 Level Indianapolis Center
Wed 07:24:30 PM 38.7017 -83.2531 267° West 293 337 36,000 -48 Descending Indianapolis Center
Wed 07:25:32 PM 38.6964 -83.3792 267° West 299 344 36,000  Level Indianapolis Center
Wed 07:26:33 PM 38.6911 -83.4867 266° West 300 345 36,000  Level Indianapolis Center
Wed 07:27:35 PM 38.6861 -83.5914 267° West 295 339 36,000  Level Indianapolis Center
Wed 07:28:37 PM 38.6806 -83.6992 266° West 300 345 36,000  Level Indianapolis Center
Wed 07:29:38 PM 38.6750 -83.8067 266° West 300 345 36,000  Level Indianapolis Center
Wed 07:30:40 PM 38.6697 -83.9111 266° West 292 336 36,000  Level Indianapolis Center
Wed 07:31:41 PM 38.6650 -84.0192 267° West 301 346 36,000  Level Indianapolis Center
Wed 07:32:43 PM 38.6589 -84.1253 266° West 297 342 36,000  Level Indianapolis Center
Wed 07:33:45 PM 38.6533 -84.2336 266° West 300 345 36,000  Level Indianapolis Center
Wed 07:34:46 PM 38.6492 -84.3411 267° West 300 345 36,000  Level Indianapolis Center
Wed 07:35:48 PM 38.6575 -84.4506 276° West 302 348 36,000 48 Level Indianapolis Center
Wed 07:36:50 PM 38.6650 -84.5772 274° West 306 352 36,100 49 Climbing Indianapolis Center
Wed 07:37:51 PM 38.6714 -84.6875 274° West 310 357 36,100  Level Indianapolis Center
Wed 07:38:53 PM 38.6781 -84.7978 274° West 310 357 36,100  Level Indianapolis Center
Wed 07:39:55 PM 38.6839 -84.9100 274° West 313 360 36,100  Level Indianapolis Center
Wed 07:40:56 PM 38.6903 -85.0214 274° West 313 360 36,100  Level Indianapolis Center
Wed 07:41:58 PM 38.6961 -85.1328 274° West 313 360 36,100  Level Indianapolis Center
Wed 07:43:00 PM 38.7014 -85.2450 273° West 314 361 36,100  Level Indianapolis Center
Wed 07:44:01 PM 38.7081 -85.3556 274° West 311 358 36,100  Level Indianapolis Center
Wed 07:45:03 PM 38.7142 -85.4861 273° West 311 358 36,100 -48 Level Indianapolis Center
Wed 07:46:05 PM 38.7203 -85.5972 274° West 311 358 36,000  Descending Indianapolis Center
Wed 07:47:07 PM 38.7258 -85.7078 274° West 309 356 36,100 49 Climbing Indianapolis Center
Wed 07:48:08 PM 38.7308 -85.8178 273° West 309 356 36,100  Level Indianapolis Center
Wed 07:49:10 PM 38.7361 -85.9164 274° West 308 354 36,100  Level Indianapolis Center
Wed 07:50:12 PM 38.7419 -86.0486 273° West 311 358 36,100  Level Indianapolis Center
Wed 07:51:13 PM 38.7464 -86.1594 273° West 312 359 36,100  Level Indianapolis Center
Wed 07:52:15 PM 38.7514 -86.2681 273° West 308 354 36,100  Level Indianapolis Center
Wed 07:53:17 PM 38.7561 -86.3778 273° West 308 354 36,100  Level Indianapolis Center
Wed 07:55:22 PM 38.7658 -86.6011 273° West 310 357 36,100  Level Kansas City Center
Wed 07:56:22 PM 38.7706 -86.7108 273° West 313 360 36,100  Level Indianapolis Center
Wed 07:57:24 PM 38.7744 -86.8208 273° West 310 357 36,100  Level Indianapolis Center
Wed 07:58:25 PM 38.7797 -86.9539 273° West 312 359 36,100  Level Indianapolis Center
Wed 07:59:27 PM 38.7833 -87.0653 272° West 314 361 36,100  Level Indianapolis Center
Wed 08:00:28 PM 38.7878 -87.1767 273° West 314 361 36,100  Level Indianapolis Center
Wed 08:01:30 PM 38.7917 -87.2881 273° West 312 359 36,100  Level Indianapolis Center
Wed 08:02:32 PM 38.7961 -87.3992 273° West 313 360 36,100  Level Indianapolis Center
Wed 08:03:33 PM 38.7994 -87.5106 272° West 313 360 36,100  Level Indianapolis Center
Wed 08:04:35 PM 38.8028 -87.6217 272° West 312 359 36,100  Level Indianapolis Center
Wed 08:05:37 PM 38.8064 -87.7331 272° West 313 360 36,100  Level Indianapolis Center
Wed 08:06:38 PM 38.8103 -87.8661 272° West 312 359 36,100  Level Indianapolis Center
Wed 08:07:40 PM 38.8139 -87.9761 272° West 309 356 36,100  Level Indianapolis Center
Wed 08:08:42 PM 38.8167 -88.0875 272° West 311 358 36,100  Level Indianapolis Center
Wed 08:09:47 PM 38.8294 -88.1981 278° West 310 357 36,100  Level Kansas City Center
Wed 08:10:47 PM 38.8542 -88.3075 286° West 316 364 36,100  Level Kansas City Center
Wed 08:11:51 PM 38.8761 -88.4172 284° West 317 365 36,100  Level Kansas City Center
Wed 08:12:52 PM 38.9008 -88.5264 286° West 316 364 36,100  Level Kansas City Center
Wed 08:13:53 PM 38.9233 -88.6392 284° West 315 362 36,100  Level Kansas City Center
Wed 08:14:54 PM 38.9458 -88.7483 285° West 316 364 36,100  Level Kansas City Center
Wed 08:15:55 PM 38.9725 -88.8781 285° West 315 362 36,100  Level Kansas City Center
Wed 08:17:00 PM 38.9961 -88.9917 285° West 317 365 36,100  Level Kansas City Center
Wed 08:18:00 PM 39.0186 -89.1014 285° West 319 367 36,100  Level Kansas City Center
Wed 08:19:04 PM 39.0433 -89.2181 285° West 317 365 36,100  Level Kansas City Center
Wed 08:20:05 PM 39.0653 -89.3264 285° West 315 362 36,100 -49 Level Kansas City Center
Wed 08:21:06 PM 39.0889 -89.4433 285° West 316 364 36,000  Descending Kansas City Center
Wed 08:22:06 PM 39.1103 -89.5528 284° West 317 365 36,100 48 Climbing Kansas City Center
Wed 08:23:10 PM 39.1331 -89.6706 284° West 317 365 36,100  Level Kansas City Center
Wed 08:24:10 PM 39.1550 -89.7792 285° West 316 364 36,100  Level Kansas City Center
Wed 08:25:12 PM 39.1761 -89.8892 284° West 317 365 36,100  Level Kansas City Center
Wed 08:26:16 PM 39.1967 -89.9911 285° West 319 367 36,100  Level Kansas City Center
Wed 08:27:16 PM 39.2192 -90.1014 285° West 320 368 36,100  Level Kansas City Center
Wed 08:28:19 PM 39.2450 -90.2336 284° West 320 368 36,100  Level Kansas City Center
Wed 08:29:21 PM 39.2656 -90.3447 283° West 320 368 36,100  Level Kansas City Center
Wed 08:30:21 PM 39.2869 -90.4553 284° West 320 368 36,100  Level Kansas City Center
Wed 08:31:25 PM 39.3086 -90.5678 284° West 323 372 36,100  Level Kansas City Center
Wed 08:32:25 PM 39.3294 -90.6814 283° West 326 375 36,100  Level Kansas City Center
Wed 08:33:29 PM 39.3508 -90.7939 284° West 325 374 36,100  Level Kansas City Center
Wed 08:34:29 PM 39.3764 -90.9314 284° West 329 379 36,100  Level Kansas City Center
Wed 08:35:30 PM 39.3975 -91.0461 283° West 330 380 36,100  Level Kansas City Center
Wed 08:36:33 PM 39.4192 -91.1617 284° West 331 381 36,100  Level Kansas City Center
Wed 08:37:34 PM 39.4406 -91.2758 284° West 329 379 36,100  Level Kansas City Center
Wed 08:38:37 PM 39.4608 -91.3919 283° West 330 380 36,100  Level Kansas City Center
Wed 08:39:38 PM 39.4822 -91.5075 284° West 331 381 36,100  Level Kansas City Center
Wed 08:40:39 PM 39.5033 -91.6247 283° West 332 382 36,100  Level Kansas City Center
Wed 08:41:42 PM 39.5283 -91.7650 283° West 334 384 36,100  Level Kansas City Center
Wed 08:42:43 PM 39.5494 -91.8825 283° West 335 386 36,100  Level Kansas City Center
Wed 08:43:45 PM 39.5703 -92.0006 283° West 337 388 36,100  Level Kansas City Center
Wed 08:44:45 PM 39.5911 -92.1189 283° West 338 389 36,100  Level Kansas City Center
Wed 08:45:48 PM 39.6122 -92.2381 283° West 340 391 36,100  Level Kansas City Center
Wed 08:46:49 PM 39.6331 -92.3581 283° West 341 392 36,100  Level Kansas City Center
Wed 08:47:50 PM 39.6558 -92.5019 282° West 341 392 36,100  Level Kansas City Center
Wed 08:48:54 PM 39.6531 -92.6225 268° West 337 388 36,100 -48 Level Kansas City Center
Wed 08:49:55 PM 39.6511 -92.7444 269° West 336 387 36,000 -344 Descending Kansas City Center
Wed 08:50:56 PM 39.6497 -92.8667 269° West 338 389 35,400 -1,984 Descending Kansas City Center
Wed 08:51:59 PM 39.6478 -92.9842 269° West 331 381 31,900 -3,387 Descending Kansas City Center
Wed 08:53:00 PM 39.6456 -93.1069 269° West 338 389 28,400 -3,074 Descending Kansas City Center
Wed 08:54:00 PM 39.6439 -93.2281 269° West 338 389 25,700 -2,855 Descending Kansas City Center
Wed 08:55:04 PM 39.6408 -93.3747 268° West 340 391 22,500 -2,855 Descending Kansas City Center
Wed 08:56:04 PM 39.6389 -93.5017 269° West 349 402 19,800 -2,488 Descending Kansas City Center
Wed 08:57:07 PM 39.6367 -93.6231 269° West 339 390 17,400 -2,544 Descending Kansas City Center
Wed 08:58:09 PM 39.6314 -93.7525 267° West 323 372 14,500 -2,607 Descending Kansas City Center
Wed 08:59:09 PM 39.5944 -93.8417 242° Southwest 325 374 12,100 -2,231 Descending Kansas City Center
Wed 09:00:10 PM 39.5478 -93.9536 242° Southwest 315 362 10,000 -1,344 Descending Kansas City Center
Wed 09:01:14 PM 39.5136 -94.0356 242° Southwest 269 310 9,300 -1,258 Descending Kansas City Center
Wed 09:02:14 PM 39.4764 -94.1244 242° Southwest 252 290 7,400 -1,659 Descending Kansas City Center
Wed 09:03:17 PM 39.4444 -94.2017 242° Southwest 255 293 5,900 -1,452 Descending Kansas City Center
Wed 09:04:18 PM 39.4072 -94.2883 241° Southwest 246 283 4,400 -934 Descending Kansas City Center
Wed 09:05:19 PM 39.3767 -94.3614 242° Southwest 243 280 4,000 -194 Descending Kansas City Center
Wed 09:06:22 PM 39.3447 -94.4378 242° Southwest 251 289 4,000 -672 Level Kansas City Center
Wed 09:07:24 PM 39.3083 -94.5231 241° Southwest 244 281 2,600 -780 Descending Kansas City Center
Wed 09:08:25 PM 39.2869 -94.5861 246° West 188 216 2,400 -341 Descending Kansas City Center
Wed 09:09:27 PM 39.2839 -94.6419 266° West 140 161 1,900 -634 Descending Kansas City Center
Wed 09:10:28 PM 39.2875 -94.6881 276° West 135 155 1,100 -787 Descending Kansas City Center
Wed 09:12:00 PM 39.2833 -94.7000 270° West  Level FlightAware Approximate

Login

Don't have an account? Register now (free) for customized features, flight alerts, and more!